sensor_id;sensor_type;location;lat;lon;timestamp;temperature;humidity
34644;DHT22;26931;43.498;-1.506;2022-08-01T00:02:12;23.40;86.20
34644;DHT22;26931;43.498;-1.506;2022-08-01T00:04:38;23.40;86.20
34644;DHT22;26931;43.498;-1.506;2022-08-01T00:07:04;23.30;86.20
34644;DHT22;26931;43.498;-1.506;2022-08-01T00:09:30;23.40;86.40
34644;DHT22;26931;43.498;-1.506;2022-08-01T00:11:56;23.30;86.40
34644;DHT22;26931;43.498;-1.506;2022-08-01T00:14:22;23.30;86.40
34644;DHT22;26931;43.498;-1.506;2022-08-01T00:16:48;23.30;86.40
34644;DHT22;26931;43.498;-1.506;2022-08-01T00:19:14;23.30;86.40
34644;DHT22;26931;43.498;-1.506;2022-08-01T00:21:40;23.30;86.40
34644;DHT22;26931;43.498;-1.506;2022-08-01T00:24:08;23.30;86.40
34644;DHT22;26931;43.498;-1.506;2022-08-01T00:26:34;23.30;86.50
34644;DHT22;26931;43.498;-1.506;2022-08-01T00:29:00;23.30;86.50
34644;DHT22;26931;43.498;-1.506;2022-08-01T00:31:26;23.30;86.50
34644;DHT22;26931;43.498;-1.506;2022-08-01T00:33:52;23.20;86.60
34644;DHT22;26931;43.498;-1.506;2022-08-01T00:36:18;23.20;86.60
34644;DHT22;26931;43.498;-1.506;2022-08-01T00:38:44;23.20;86.60
34644;DHT22;26931;43.498;-1.506;2022-08-01T00:41:10;23.20;86.60
34644;DHT22;26931;43.498;-1.506;2022-08-01T00:43:36;23.20;86.70
34644;DHT22;26931;43.498;-1.506;2022-08-01T00:46:02;23.20;86.80
34644;DHT22;26931;43.498;-1.506;2022-08-01T00:48:30;23.20;86.80
34644;DHT22;26931;43.498;-1.506;2022-08-01T00:50:56;23.10;86.90
34644;DHT22;26931;43.498;-1.506;2022-08-01T00:53:22;23.20;87.00
34644;DHT22;26931;43.498;-1.506;2022-08-01T00:55:48;23.20;86.90
34644;DHT22;26931;43.498;-1.506;2022-08-01T00:58:14;23.10;87.00
34644;DHT22;26931;43.498;-1.506;2022-08-01T01:00:40;23.10;87.00
34644;DHT22;26931;43.498;-1.506;2022-08-01T01:03:06;23.10;87.00
34644;DHT22;26931;43.498;-1.506;2022-08-01T01:05:33;23.10;87.00
34644;DHT22;26931;43.498;-1.506;2022-08-01T01:08:04;22.90;87.10
34644;DHT22;26931;43.498;-1.506;2022-08-01T01:10:36;23.10;87.50
34644;DHT22;26931;43.498;-1.506;2022-08-01T01:13:11;22.90;87.50
34644;DHT22;26931;43.498;-1.506;2022-08-01T01:15:43;23.10;87.70
34644;DHT22;26931;43.498;-1.506;2022-08-01T01:20:40;22.80;87.70
34644;DHT22;26931;43.498;-1.506;2022-08-01T01:30:36;22.70;88.10
34644;DHT22;26931;43.498;-1.506;2022-08-01T01:33:07;22.70;88.20
34644;DHT22;26931;43.498;-1.506;2022-08-01T01:35:38;22.70;88.30
34644;DHT22;26931;43.498;-1.506;2022-08-01T01:38:09;22.70;88.40
34644;DHT22;26931;43.498;-1.506;2022-08-01T01:40:39;22.60;88.40
34644;DHT22;26931;43.498;-1.506;2022-08-01T01:43:07;22.70;88.50
34644;DHT22;26931;43.498;-1.506;2022-08-01T01:45:35;22.70;88.40
34644;DHT22;26931;43.498;-1.506;2022-08-01T01:48:01;22.70;88.50
34644;DHT22;26931;43.498;-1.506;2022-08-01T01:50:27;22.70;88.60
34644;DHT22;26931;43.498;-1.506;2022-08-01T01:52:54;22.70;88.70
34644;DHT22;26931;43.498;-1.506;2022-08-01T01:55:20;22.70;88.80
34644;DHT22;26931;43.498;-1.506;2022-08-01T01:57:47;22.80;88.90
34644;DHT22;26931;43.498;-1.506;2022-08-01T02:00:14;22.70;88.90
34644;DHT22;26931;43.498;-1.506;2022-08-01T02:02:40;22.70;88.90
34644;DHT22;26931;43.498;-1.506;2022-08-01T02:05:09;22.70;89.00
34644;DHT22;26931;43.498;-1.506;2022-08-01T02:07:35;22.70;89.00
34644;DHT22;26931;43.498;-1.506;2022-08-01T02:10:03;22.60;89.10
34644;DHT22;26931;43.498;-1.506;2022-08-01T02:12:29;22.60;89.30
34644;DHT22;26931;43.498;-1.506;2022-08-01T02:14:58;22.70;89.30
34644;DHT22;26931;43.498;-1.506;2022-08-01T02:17:24;22.70;89.30
34644;DHT22;26931;43.498;-1.506;2022-08-01T02:19:50;22.70;89.30
34644;DHT22;26931;43.498;-1.506;2022-08-01T02:22:18;22.70;89.40
34644;DHT22;26931;43.498;-1.506;2022-08-01T02:24:59;22.70;89.40
34644;DHT22;26931;43.498;-1.506;2022-08-01T02:27:50;22.90;89.60
34644;DHT22;26931;43.498;-1.506;2022-08-01T02:30:13;22.60;89.40
34644;DHT22;26931;43.498;-1.506;2022-08-01T02:32:53;22.70;89.60
34644;DHT22;26931;43.498;-1.506;2022-08-01T02:35:30;22.70;89.70
34644;DHT22;26931;43.498;-1.506;2022-08-01T02:37:57;22.70;89.60
34644;DHT22;26931;43.498;-1.506;2022-08-01T02:40:24;22.70;89.80
34644;DHT22;26931;43.498;-1.506;2022-08-01T02:42:52;22.70;89.90
34644;DHT22;26931;43.498;-1.506;2022-08-01T02:45:20;22.80;90.00
34644;DHT22;26931;43.498;-1.506;2022-08-01T02:47:48;22.70;89.90
34644;DHT22;26931;43.498;-1.506;2022-08-01T02:50:14;22.70;90.00
34644;DHT22;26931;43.498;-1.506;2022-08-01T02:52:42;22.70;90.00
34644;DHT22;26931;43.498;-1.506;2022-08-01T02:55:09;22.70;90.10
34644;DHT22;26931;43.498;-1.506;2022-08-01T02:57:36;22.70;90.10
34644;DHT22;26931;43.498;-1.506;2022-08-01T03:00:03;22.70;90.10
34644;DHT22;26931;43.498;-1.506;2022-08-01T03:02:30;22.70;90.10
34644;DHT22;26931;43.498;-1.506;2022-08-01T03:04:56;22.80;90.10
34644;DHT22;26931;43.498;-1.506;2022-08-01T03:07:24;22.70;90.10
34644;DHT22;26931;43.498;-1.506;2022-08-01T03:09:51;22.70;90.20
34644;DHT22;26931;43.498;-1.506;2022-08-01T03:12:18;22.70;90.20
34644;DHT22;26931;43.498;-1.506;2022-08-01T03:14:45;22.90;90.30
34644;DHT22;26931;43.498;-1.506;2022-08-01T03:17:12;22.70;90.30
34644;DHT22;26931;43.498;-1.506;2022-08-01T03:19:38;22.70;90.20
34644;DHT22;26931;43.498;-1.506;2022-08-01T03:22:08;22.70;90.30
34644;DHT22;26931;43.498;-1.506;2022-08-01T03:24:36;22.70;90.30
34644;DHT22;26931;43.498;-1.506;2022-08-01T03:27:03;22.70;90.30
34644;DHT22;26931;43.498;-1.506;2022-08-01T03:29:29;22.60;90.30
34644;DHT22;26931;43.498;-1.506;2022-08-01T03:31:57;22.60;90.30
34644;DHT22;26931;43.498;-1.506;2022-08-01T03:34:23;22.70;90.30
34644;DHT22;26931;43.498;-1.506;2022-08-01T03:36:55;22.60;90.30
34644;DHT22;26931;43.498;-1.506;2022-08-01T03:39:22;22.60;90.30
34644;DHT22;26931;43.498;-1.506;2022-08-01T03:41:52;22.60;90.40
34644;DHT22;26931;43.498;-1.506;2022-08-01T03:44:20;22.70;90.50
34644;DHT22;26931;43.498;-1.506;2022-08-01T03:46:49;22.60;90.40
34644;DHT22;26931;43.498;-1.506;2022-08-01T03:49:20;22.60;90.50
34644;DHT22;26931;43.498;-1.506;2022-08-01T03:51:47;22.60;90.50
34644;DHT22;26931;43.498;-1.506;2022-08-01T03:54:16;22.60;90.50
34644;DHT22;26931;43.498;-1.506;2022-08-01T03:56:43;22.60;90.50
34644;DHT22;26931;43.498;-1.506;2022-08-01T03:59:09;22.50;90.60
34644;DHT22;26931;43.498;-1.506;2022-08-01T04:01:35;22.50;90.60
34644;DHT22;26931;43.498;-1.506;2022-08-01T04:04:01;22.50;90.60
34644;DHT22;26931;43.498;-1.506;2022-08-01T04:06:30;22.50;90.70
34644;DHT22;26931;43.498;-1.506;2022-08-01T04:08:56;22.50;90.70
34644;DHT22;26931;43.498;-1.506;2022-08-01T04:11:25;22.50;90.70
34644;DHT22;26931;43.498;-1.506;2022-08-01T04:13:51;22.40;90.70
34644;DHT22;26931;43.498;-1.506;2022-08-01T04:16:18;22.40;90.80
34644;DHT22;26931;43.498;-1.506;2022-08-01T04:18:44;22.40;90.80
34644;DHT22;26931;43.498;-1.506;2022-08-01T04:21:10;22.40;90.80
34644;DHT22;26931;43.498;-1.506;2022-08-01T04:23:36;22.60;90.80
34644;DHT22;26931;43.498;-1.506;2022-08-01T04:26:03;22.40;90.80
34644;DHT22;26931;43.498;-1.506;2022-08-01T04:28:30;22.60;90.90
34644;DHT22;26931;43.498;-1.506;2022-08-01T04:30:57;22.40;90.80
34644;DHT22;26931;43.498;-1.506;2022-08-01T04:33:24;22.40;91.20
34644;DHT22;26931;43.498;-1.506;2022-08-01T04:35:51;22.40;90.90
34644;DHT22;26931;43.498;-1.506;2022-08-01T04:38:19;22.40;90.90
34644;DHT22;26931;43.498;-1.506;2022-08-01T04:40:46;22.50;90.90
34644;DHT22;26931;43.498;-1.506;2022-08-01T04:43:12;22.50;91.30
34644;DHT22;26931;43.498;-1.506;2022-08-01T04:45:39;22.50;91.10
34644;DHT22;26931;43.498;-1.506;2022-08-01T04:48:05;22.30;91.00
34644;DHT22;26931;43.498;-1.506;2022-08-01T04:50:32;22.20;91.00
34644;DHT22;26931;43.498;-1.506;2022-08-01T04:52:58;22.20;91.10
34644;DHT22;26931;43.498;-1.506;2022-08-01T04:55:23;22.20;91.10
34644;DHT22;26931;43.498;-1.506;2022-08-01T04:57:49;22.10;91.10
34644;DHT22;26931;43.498;-1.506;2022-08-01T05:00:15;22.20;91.20
34644;DHT22;26931;43.498;-1.506;2022-08-01T05:02:44;22.40;91.20
34644;DHT22;26931;43.498;-1.506;2022-08-01T05:05:10;22.20;91.30
34644;DHT22;26931;43.498;-1.506;2022-08-01T05:07:36;22.20;91.20
34644;DHT22;26931;43.498;-1.506;2022-08-01T05:10:03;22.20;91.30
34644;DHT22;26931;43.498;-1.506;2022-08-01T05:12:29;22.20;91.30
34644;DHT22;26931;43.498;-1.506;2022-08-01T05:14:57;22.20;91.30
34644;DHT22;26931;43.498;-1.506;2022-08-01T05:17:23;22.20;91.30
34644;DHT22;26931;43.498;-1.506;2022-08-01T05:19:49;22.20;91.30
34644;DHT22;26931;43.498;-1.506;2022-08-01T05:22:15;22.20;91.30
34644;DHT22;26931;43.498;-1.506;2022-08-01T05:24:40;22.20;91.40
34644;DHT22;26931;43.498;-1.506;2022-08-01T05:27:07;22.20;91.40
34644;DHT22;26931;43.498;-1.506;2022-08-01T05:29:33;22.20;91.40
34644;DHT22;26931;43.498;-1.506;2022-08-01T05:31:59;22.30;91.40
34644;DHT22;26931;43.498;-1.506;2022-08-01T05:34:25;22.30;91.40
34644;DHT22;26931;43.498;-1.506;2022-08-01T05:36:52;22.30;91.40
34644;DHT22;26931;43.498;-1.506;2022-08-01T05:39:17;22.30;91.30
34644;DHT22;26931;43.498;-1.506;2022-08-01T05:41:43;22.30;91.40
34644;DHT22;26931;43.498;-1.506;2022-08-01T05:44:09;22.30;91.40
34644;DHT22;26931;43.498;-1.506;2022-08-01T05:46:35;22.40;91.40
34644;DHT22;26931;43.498;-1.506;2022-08-01T05:49:02;22.40;91.40
34644;DHT22;26931;43.498;-1.506;2022-08-01T05:51:28;22.40;91.40
34644;DHT22;26931;43.498;-1.506;2022-08-01T05:53:55;22.50;91.40
34644;DHT22;26931;43.498;-1.506;2022-08-01T05:56:21;22.60;91.50
34644;DHT22;26931;43.498;-1.506;2022-08-01T05:58:47;22.40;91.40
34644;DHT22;26931;43.498;-1.506;2022-08-01T06:01:14;22.50;91.40
34644;DHT22;26931;43.498;-1.506;2022-08-01T06:03:40;22.50;91.40
34644;DHT22;26931;43.498;-1.506;2022-08-01T06:06:06;22.50;91.40
34644;DHT22;26931;43.498;-1.506;2022-08-01T06:08:33;22.70;91.40
34644;DHT22;26931;43.498;-1.506;2022-08-01T06:10:59;22.50;91.40
34644;DHT22;26931;43.498;-1.506;2022-08-01T06:13:24;22.60;91.40
34644;DHT22;26931;43.498;-1.506;2022-08-01T06:15:51;22.60;91.40
34644;DHT22;26931;43.498;-1.506;2022-08-01T06:18:17;22.60;91.40
34644;DHT22;26931;43.498;-1.506;2022-08-01T06:20:43;22.60;91.30
34644;DHT22;26931;43.498;-1.506;2022-08-01T06:23:12;22.80;91.30
34644;DHT22;26931;43.498;-1.506;2022-08-01T06:25:41;22.70;91.30
34644;DHT22;26931;43.498;-1.506;2022-08-01T06:28:07;22.70;91.20
34644;DHT22;26931;43.498;-1.506;2022-08-01T06:30:33;22.70;91.20
34644;DHT22;26931;43.498;-1.506;2022-08-01T06:32:59;22.70;91.10
34644;DHT22;26931;43.498;-1.506;2022-08-01T06:35:25;22.70;91.10
34644;DHT22;26931;43.498;-1.506;2022-08-01T06:37:51;22.80;91.10
34644;DHT22;26931;43.498;-1.506;2022-08-01T06:40:17;22.70;91.10
34644;DHT22;26931;43.498;-1.506;2022-08-01T06:42:44;22.80;91.00
34644;DHT22;26931;43.498;-1.506;2022-08-01T06:45:11;22.60;90.90
34644;DHT22;26931;43.498;-1.506;2022-08-01T06:47:37;22.80;90.90
34644;DHT22;26931;43.498;-1.506;2022-08-01T06:50:04;22.90;90.90
34644;DHT22;26931;43.498;-1.506;2022-08-01T06:52:30;22.90;90.80
34644;DHT22;26931;43.498;-1.506;2022-08-01T06:54:56;22.90;90.80
34644;DHT22;26931;43.498;-1.506;2022-08-01T06:57:22;22.90;90.70
34644;DHT22;26931;43.498;-1.506;2022-08-01T06:59:48;23.00;90.70
34644;DHT22;26931;43.498;-1.506;2022-08-01T07:02:14;23.10;90.70
34644;DHT22;26931;43.498;-1.506;2022-08-01T07:04:40;23.00;90.60
34644;DHT22;26931;43.498;-1.506;2022-08-01T07:07:06;23.00;90.60
34644;DHT22;26931;43.498;-1.506;2022-08-01T07:09:32;23.10;90.50
34644;DHT22;26931;43.498;-1.506;2022-08-01T07:11:58;23.20;90.50
34644;DHT22;26931;43.498;-1.506;2022-08-01T07:14:24;23.20;90.40
34644;DHT22;26931;43.498;-1.506;2022-08-01T07:16:50;23.20;90.30
34644;DHT22;26931;43.498;-1.506;2022-08-01T07:19:16;23.20;90.30
34644;DHT22;26931;43.498;-1.506;2022-08-01T07:21:42;23.30;90.20
34644;DHT22;26931;43.498;-1.506;2022-08-01T07:24:09;23.30;90.10
34644;DHT22;26931;43.498;-1.506;2022-08-01T07:26:35;23.40;90.00
34644;DHT22;26931;43.498;-1.506;2022-08-01T07:29:01;23.30;89.70
34644;DHT22;26931;43.498;-1.506;2022-08-01T07:31:28;23.30;89.40
34644;DHT22;26931;43.498;-1.506;2022-08-01T07:33:54;23.20;89.30
34644;DHT22;26931;43.498;-1.506;2022-08-01T07:36:20;23.20;89.40
34644;DHT22;26931;43.498;-1.506;2022-08-01T07:38:46;23.20;89.30
34644;DHT22;26931;43.498;-1.506;2022-08-01T07:41:12;23.30;89.20
34644;DHT22;26931;43.498;-1.506;2022-08-01T07:43:38;23.30;89.00
34644;DHT22;26931;43.498;-1.506;2022-08-01T07:46:04;23.50;89.10
34644;DHT22;26931;43.498;-1.506;2022-08-01T07:48:31;23.60;88.90
34644;DHT22;26931;43.498;-1.506;2022-08-01T07:50:57;23.60;88.80
34644;DHT22;26931;43.498;-1.506;2022-08-01T07:53:22;23.40;88.40
34644;DHT22;26931;43.498;-1.506;2022-08-01T07:55:48;23.40;88.10
34644;DHT22;26931;43.498;-1.506;2022-08-01T07:58:14;23.40;88.00
34644;DHT22;26931;43.498;-1.506;2022-08-01T08:00:41;23.30;88.00
34644;DHT22;26931;43.498;-1.506;2022-08-01T08:03:07;23.30;88.00
34644;DHT22;26931;43.498;-1.506;2022-08-01T08:05:32;23.30;87.70
34644;DHT22;26931;43.498;-1.506;2022-08-01T08:08:02;23.50;87.60
34644;DHT22;26931;43.498;-1.506;2022-08-01T08:10:29;23.30;87.50
34644;DHT22;26931;43.498;-1.506;2022-08-01T08:12:55;23.30;87.20
34644;DHT22;26931;43.498;-1.506;2022-08-01T08:15:21;23.30;87.20
34644;DHT22;26931;43.498;-1.506;2022-08-01T08:17:47;23.40;87.10
34644;DHT22;26931;43.498;-1.506;2022-08-01T08:20:12;23.50;87.10
34644;DHT22;26931;43.498;-1.506;2022-08-01T08:22:38;23.40;86.90
34644;DHT22;26931;43.498;-1.506;2022-08-01T08:25:04;23.60;86.80
34644;DHT22;26931;43.498;-1.506;2022-08-01T08:27:30;23.60;86.60
34644;DHT22;26931;43.498;-1.506;2022-08-01T08:29:56;23.60;86.50
34644;DHT22;26931;43.498;-1.506;2022-08-01T08:32:21;23.70;86.30
34644;DHT22;26931;43.498;-1.506;2022-08-01T08:34:47;23.80;85.80
34644;DHT22;26931;43.498;-1.506;2022-08-01T08:37:13;24.00;85.40
34644;DHT22;26931;43.498;-1.506;2022-08-01T08:39:39;24.20;85.00
34644;DHT22;26931;43.498;-1.506;2022-08-01T08:42:07;24.50;84.40
34644;DHT22;26931;43.498;-1.506;2022-08-01T08:44:33;24.60;83.80
34644;DHT22;26931;43.498;-1.506;2022-08-01T08:47:00;24.80;83.30
34644;DHT22;26931;43.498;-1.506;2022-08-01T08:49:27;25.00;82.70
34644;DHT22;26931;43.498;-1.506;2022-08-01T08:51:56;25.20;82.10
34644;DHT22;26931;43.498;-1.506;2022-08-01T08:54:23;25.30;81.80
34644;DHT22;26931;43.498;-1.506;2022-08-01T08:56:50;25.40;81.90
34644;DHT22;26931;43.498;-1.506;2022-08-01T08:59:16;25.50;81.30
34644;DHT22;26931;43.498;-1.506;2022-08-01T09:01:42;25.70;81.10
34644;DHT22;26931;43.498;-1.506;2022-08-01T09:04:08;25.80;80.60
34644;DHT22;26931;43.498;-1.506;2022-08-01T09:06:33;25.90;80.20
34644;DHT22;26931;43.498;-1.506;2022-08-01T09:08:59;26.00;80.00
34644;DHT22;26931;43.498;-1.506;2022-08-01T09:11:25;26.10;79.50
34644;DHT22;26931;43.498;-1.506;2022-08-01T09:16:29;26.30;78.90
34644;DHT22;26931;43.498;-1.506;2022-08-01T09:19:03;26.50;78.60
34644;DHT22;26931;43.498;-1.506;2022-08-01T09:21:31;26.40;78.10
34644;DHT22;26931;43.498;-1.506;2022-08-01T09:23:56;26.50;77.80
34644;DHT22;26931;43.498;-1.506;2022-08-01T09:26:31;26.60;77.40
34644;DHT22;26931;43.498;-1.506;2022-08-01T09:28:58;26.80;77.10
34644;DHT22;26931;43.498;-1.506;2022-08-01T09:31:27;26.90;76.90
34644;DHT22;26931;43.498;-1.506;2022-08-01T09:33:58;27.00;76.60
34644;DHT22;26931;43.498;-1.506;2022-08-01T09:36:25;27.00;76.10
34644;DHT22;26931;43.498;-1.506;2022-08-01T09:38:52;27.20;75.80
34644;DHT22;26931;43.498;-1.506;2022-08-01T09:41:27;27.30;75.60
34644;DHT22;26931;43.498;-1.506;2022-08-01T09:43:53;27.30;75.30
34644;DHT22;26931;43.498;-1.506;2022-08-01T09:46:19;27.40;75.20
34644;DHT22;26931;43.498;-1.506;2022-08-01T09:48:54;27.40;74.90
34644;DHT22;26931;43.498;-1.506;2022-08-01T09:51:27;27.40;74.90
34644;DHT22;26931;43.498;-1.506;2022-08-01T09:53:53;27.40;74.80
34644;DHT22;26931;43.498;-1.506;2022-08-01T09:56:20;27.50;74.60
34644;DHT22;26931;43.498;-1.506;2022-08-01T09:58:50;27.50;74.50
34644;DHT22;26931;43.498;-1.506;2022-08-01T10:01:16;27.50;74.50
34644;DHT22;26931;43.498;-1.506;2022-08-01T10:03:42;27.60;74.50
34644;DHT22;26931;43.498;-1.506;2022-08-01T10:06:20;27.50;74.30
34644;DHT22;26931;43.498;-1.506;2022-08-01T10:08:46;27.50;74.60
34644;DHT22;26931;43.498;-1.506;2022-08-01T10:11:12;27.30;74.90
34644;DHT22;26931;43.498;-1.506;2022-08-01T10:13:38;27.20;75.10
34644;DHT22;26931;43.498;-1.506;2022-08-01T10:16:05;27.30;75.60
34644;DHT22;26931;43.498;-1.506;2022-08-01T10:18:31;27.10;75.90
34644;DHT22;26931;43.498;-1.506;2022-08-01T10:21:02;27.00;76.00
34644;DHT22;26931;43.498;-1.506;2022-08-01T10:23:30;27.00;76.10
34644;DHT22;26931;43.498;-1.506;2022-08-01T10:25:58;27.00;76.30
34644;DHT22;26931;43.498;-1.506;2022-08-01T10:28:30;26.90;76.40
34644;DHT22;26931;43.498;-1.506;2022-08-01T10:30:59;26.90;76.60
34644;DHT22;26931;43.498;-1.506;2022-08-01T10:33:25;26.90;76.80
34644;DHT22;26931;43.498;-1.506;2022-08-01T10:35:51;26.80;76.60
34644;DHT22;26931;43.498;-1.506;2022-08-01T10:38:17;26.70;76.70
34644;DHT22;26931;43.498;-1.506;2022-08-01T10:40:43;26.70;76.80
34644;DHT22;26931;43.498;-1.506;2022-08-01T10:43:10;26.70;76.70
34644;DHT22;26931;43.498;-1.506;2022-08-01T10:45:36;26.70;76.40
34644;DHT22;26931;43.498;-1.506;2022-08-01T10:48:09;26.60;76.30
34644;DHT22;26931;43.498;-1.506;2022-08-01T10:50:39;26.60;77.20
34644;DHT22;26931;43.498;-1.506;2022-08-01T10:53:09;26.60;76.50
34644;DHT22;26931;43.498;-1.506;2022-08-01T10:58:20;26.60;76.90
34644;DHT22;26931;43.498;-1.506;2022-08-01T11:00:47;26.40;77.00
34644;DHT22;26931;43.498;-1.506;2022-08-01T11:03:13;26.50;77.10
34644;DHT22;26931;43.498;-1.506;2022-08-01T11:05:38;26.50;77.00
34644;DHT22;26931;43.498;-1.506;2022-08-01T11:08:10;26.30;76.90
34644;DHT22;26931;43.498;-1.506;2022-08-01T11:10:38;26.40;77.10
34644;DHT22;26931;43.498;-1.506;2022-08-01T11:13:05;26.40;77.10
34644;DHT22;26931;43.498;-1.506;2022-08-01T11:15:33;26.40;77.10
34644;DHT22;26931;43.498;-1.506;2022-08-01T11:18:00;26.30;77.00
34644;DHT22;26931;43.498;-1.506;2022-08-01T11:20:27;26.30;76.90
34644;DHT22;26931;43.498;-1.506;2022-08-01T11:25:26;26.30;77.00
34644;DHT22;26931;43.498;-1.506;2022-08-01T11:30:36;26.30;77.00
34644;DHT22;26931;43.498;-1.506;2022-08-01T11:33:04;26.30;76.90
34644;DHT22;26931;43.498;-1.506;2022-08-01T11:35:31;26.30;76.70
34644;DHT22;26931;43.498;-1.506;2022-08-01T11:37:57;26.30;76.60
34644;DHT22;26931;43.498;-1.506;2022-08-01T11:40:42;26.20;76.50
34644;DHT22;26931;43.498;-1.506;2022-08-01T11:43:18;26.30;76.40
34644;DHT22;26931;43.498;-1.506;2022-08-01T11:45:51;26.30;76.40
34644;DHT22;26931;43.498;-1.506;2022-08-01T11:48:21;26.20;76.20
34644;DHT22;26931;43.498;-1.506;2022-08-01T11:50:49;26.10;76.20
34644;DHT22;26931;43.498;-1.506;2022-08-01T11:53:15;26.20;76.50
34644;DHT22;26931;43.498;-1.506;2022-08-01T11:55:48;26.00;76.60
34644;DHT22;26931;43.498;-1.506;2022-08-01T11:58:19;26.00;76.70
34644;DHT22;26931;43.498;-1.506;2022-08-01T12:00:53;26.00;76.80
34644;DHT22;26931;43.498;-1.506;2022-08-01T12:03:25;25.90;76.80
34644;DHT22;26931;43.498;-1.506;2022-08-01T12:05:53;25.90;77.00
34644;DHT22;26931;43.498;-1.506;2022-08-01T12:08:26;25.90;77.20
34644;DHT22;26931;43.498;-1.506;2022-08-01T12:10:52;26.00;77.50
34644;DHT22;26931;43.498;-1.506;2022-08-01T12:13:17;25.90;77.40
34644;DHT22;26931;43.498;-1.506;2022-08-01T12:15:43;25.90;77.20
34644;DHT22;26931;43.498;-1.506;2022-08-01T12:18:10;25.90;77.30
34644;DHT22;26931;43.498;-1.506;2022-08-01T12:20:37;25.90;77.40
34644;DHT22;26931;43.498;-1.506;2022-08-01T12:23:05;25.70;77.20
34644;DHT22;26931;43.498;-1.506;2022-08-01T12:25:34;25.80;77.30
34644;DHT22;26931;43.498;-1.506;2022-08-01T12:28:00;25.80;77.40
34644;DHT22;26931;43.498;-1.506;2022-08-01T12:30:27;25.80;77.40
34644;DHT22;26931;43.498;-1.506;2022-08-01T12:32:53;25.90;77.40
34644;DHT22;26931;43.498;-1.506;2022-08-01T12:35:20;25.70;77.50
34644;DHT22;26931;43.498;-1.506;2022-08-01T12:37:51;25.70;77.50
34644;DHT22;26931;43.498;-1.506;2022-08-01T12:40:25;25.60;77.50
34644;DHT22;26931;43.498;-1.506;2022-08-01T12:42:55;25.70;77.60
34644;DHT22;26931;43.498;-1.506;2022-08-01T12:45:24;25.70;77.70
34644;DHT22;26931;43.498;-1.506;2022-08-01T12:47:51;25.70;77.70
34644;DHT22;26931;43.498;-1.506;2022-08-01T12:50:20;25.70;77.80
34644;DHT22;26931;43.498;-1.506;2022-08-01T12:52:47;25.70;77.70
34644;DHT22;26931;43.498;-1.506;2022-08-01T12:55:14;25.90;77.80
34644;DHT22;26931;43.498;-1.506;2022-08-01T12:57:41;25.70;77.70
34644;DHT22;26931;43.498;-1.506;2022-08-01T13:00:11;25.70;77.70
34644;DHT22;26931;43.498;-1.506;2022-08-01T13:02:37;25.70;77.70
34644;DHT22;26931;43.498;-1.506;2022-08-01T13:05:03;25.70;77.70
34644;DHT22;26931;43.498;-1.506;2022-08-01T13:07:36;25.60;77.70
34644;DHT22;26931;43.498;-1.506;2022-08-01T13:10:03;25.70;77.80
34644;DHT22;26931;43.498;-1.506;2022-08-01T13:12:28;25.60;77.60
34644;DHT22;26931;43.498;-1.506;2022-08-01T13:14:54;25.60;77.70
34644;DHT22;26931;43.498;-1.506;2022-08-01T13:17:31;25.60;77.70
34644;DHT22;26931;43.498;-1.506;2022-08-01T13:19:57;25.60;77.80
34644;DHT22;26931;43.498;-1.506;2022-08-01T13:22:33;25.60;77.80
34644;DHT22;26931;43.498;-1.506;2022-08-01T13:25:10;25.60;77.90
34644;DHT22;26931;43.498;-1.506;2022-08-01T13:27:36;25.60;77.90
34644;DHT22;26931;43.498;-1.506;2022-08-01T13:30:13;25.70;78.00
34644;DHT22;26931;43.498;-1.506;2022-08-01T13:32:39;25.60;78.00
34644;DHT22;26931;43.498;-1.506;2022-08-01T13:35:08;25.60;77.90
34644;DHT22;26931;43.498;-1.506;2022-08-01T13:37:35;25.60;77.90
34644;DHT22;26931;43.498;-1.506;2022-08-01T13:40:01;25.60;77.90
34644;DHT22;26931;43.498;-1.506;2022-08-01T13:42:27;25.60;77.90
34644;DHT22;26931;43.498;-1.506;2022-08-01T13:44:54;25.60;78.00
34644;DHT22;26931;43.498;-1.506;2022-08-01T13:47:20;25.60;78.00
34644;DHT22;26931;43.498;-1.506;2022-08-01T13:49:46;25.60;78.10
34644;DHT22;26931;43.498;-1.506;2022-08-01T13:52:11;25.70;78.20
34644;DHT22;26931;43.498;-1.506;2022-08-01T13:54:37;25.90;78.50
34644;DHT22;26931;43.498;-1.506;2022-08-01T13:57:03;25.70;78.40
34644;DHT22;26931;43.498;-1.506;2022-08-01T13:59:29;25.60;78.40
34644;DHT22;26931;43.498;-1.506;2022-08-01T14:01:55;25.60;78.50
34644;DHT22;26931;43.498;-1.506;2022-08-01T14:04:20;25.60;78.60
34644;DHT22;26931;43.498;-1.506;2022-08-01T14:06:46;25.60;78.60
34644;DHT22;26931;43.498;-1.506;2022-08-01T14:09:12;25.60;78.70
34644;DHT22;26931;43.498;-1.506;2022-08-01T14:11:38;25.60;78.70
34644;DHT22;26931;43.498;-1.506;2022-08-01T14:14:03;25.60;78.70
34644;DHT22;26931;43.498;-1.506;2022-08-01T14:16:29;25.70;78.80
34644;DHT22;26931;43.498;-1.506;2022-08-01T14:18:55;25.70;78.80
34644;DHT22;26931;43.498;-1.506;2022-08-01T14:21:21;25.60;78.80
34644;DHT22;26931;43.498;-1.506;2022-08-01T14:23:46;25.70;78.80
34644;DHT22;26931;43.498;-1.506;2022-08-01T14:26:12;25.70;78.80
34644;DHT22;26931;43.498;-1.506;2022-08-01T14:28:38;25.70;78.80
34644;DHT22;26931;43.498;-1.506;2022-08-01T14:31:09;25.70;78.90
34644;DHT22;26931;43.498;-1.506;2022-08-01T14:33:35;25.90;79.10
34644;DHT22;26931;43.498;-1.506;2022-08-01T14:36:01;25.70;78.90
34644;DHT22;26931;43.498;-1.506;2022-08-01T14:38:27;25.80;79.00
34644;DHT22;26931;43.498;-1.506;2022-08-01T14:40:53;25.90;79.00
34644;DHT22;26931;43.498;-1.506;2022-08-01T14:43:19;25.70;78.80
34644;DHT22;26931;43.498;-1.506;2022-08-01T14:45:45;25.70;78.80
34644;DHT22;26931;43.498;-1.506;2022-08-01T14:48:14;25.70;78.80
34644;DHT22;26931;43.498;-1.506;2022-08-01T14:50:40;25.60;78.80
34644;DHT22;26931;43.498;-1.506;2022-08-01T14:53:06;25.70;78.90
34644;DHT22;26931;43.498;-1.506;2022-08-01T14:55:32;25.70;78.90
34644;DHT22;26931;43.498;-1.506;2022-08-01T14:57:58;25.70;79.00
34644;DHT22;26931;43.498;-1.506;2022-08-01T15:00:23;25.60;79.10
34644;DHT22;26931;43.498;-1.506;2022-08-01T15:02:49;25.70;79.20
34644;DHT22;26931;43.498;-1.506;2022-08-01T15:05:16;25.60;79.20
34644;DHT22;26931;43.498;-1.506;2022-08-01T15:07:41;25.60;79.20
34644;DHT22;26931;43.498;-1.506;2022-08-01T15:10:07;25.60;79.20
34644;DHT22;26931;43.498;-1.506;2022-08-01T15:12:34;25.60;79.20
34644;DHT22;26931;43.498;-1.506;2022-08-01T15:15:00;25.60;79.20
34644;DHT22;26931;43.498;-1.506;2022-08-01T15:17:27;25.60;79.30
34644;DHT22;26931;43.498;-1.506;2022-08-01T15:20:01;25.60;79.40
34644;DHT22;26931;43.498;-1.506;2022-08-01T15:22:28;25.60;79.40
34644;DHT22;26931;43.498;-1.506;2022-08-01T15:24:55;25.60;79.40
34644;DHT22;26931;43.498;-1.506;2022-08-01T15:27:21;25.70;79.40
34644;DHT22;26931;43.498;-1.506;2022-08-01T15:29:47;25.50;79.30
34644;DHT22;26931;43.498;-1.506;2022-08-01T15:32:13;25.60;80.10
34644;DHT22;26931;43.498;-1.506;2022-08-01T15:34:40;25.70;79.40
34644;DHT22;26931;43.498;-1.506;2022-08-01T15:37:06;25.60;79.40